Time,TemperatureF,DewpointF,PressureIn,WindDirection,WindDirectionDegrees,WindSpeedMPH,WindSpeedGustMPH,Humidity,HourlyPrecipIn,Conditions,Clouds,dailyrainin,SoftwareType,DateUTC
2013-04-13 00:03:00,73.0,67.0,29.79,SE,140,0.0,0.0,82,0.00,,,0.04,,2013-04-13 04:03:00,
2013-04-13 00:12:00,73.0,67.0,29.79,SE,140,0.0,0.0,82,0.00,,,0.04,,2013-04-13 04:12:00,
2013-04-13 00:23:00,73.0,67.0,29.79,West,271,0.0,0.0,81,0.00,,,0.04,,2013-04-13 04:23:00,
2013-04-13 00:33:00,73.0,67.0,29.79,West,271,0.0,0.0,81,0.00,,,0.04,,2013-04-13 04:33:00,
2013-04-13 00:42:00,73.0,67.0,29.79,West,271,0.0,0.0,81,0.00,,,0.04,,2013-04-13 04:42:00,
2013-04-13 00:53:00,73.0,67.0,29.80,NW,304,0.0,0.0,81,0.00,,,0.04,,2013-04-13 04:53:00,
2013-04-13 01:02:00,72.0,66.0,29.79,NW,304,0.0,0.0,82,0.00,,,0.04,,2013-04-13 05:02:00,
2013-04-13 01:12:00,72.0,66.0,29.79,NW,304,0.0,0.0,82,0.00,,,0.04,,2013-04-13 05:12:00,
2013-04-13 01:22:00,72.0,66.0,29.79,North,9,0.0,1.0,82,0.00,,,0.04,,2013-04-13 05:22:00,
2013-04-13 01:32:00,72.0,67.0,29.81,NNW,328,0.0,0.0,83,0.00,,,0.00,,2013-04-13 05:32:00,
2013-04-13 01:43:00,72.0,67.0,29.81,NNW,328,0.0,0.0,83,0.00,,,0.00,,2013-04-13 05:43:00,
2013-04-13 01:53:00,72.0,67.0,29.80,NNW,328,0.0,0.0,84,0.00,,,0.00,,2013-04-13 05:53:00,
2013-04-13 02:02:00,72.0,67.0,29.81,WNW,298,2.0,3.0,84,0.00,,,0.00,,2013-04-13 06:02:00,
2013-04-13 02:12:00,72.0,67.0,29.81,WNW,298,2.0,3.0,84,0.00,,,0.00,,2013-04-13 06:12:00,
2013-04-13 02:24:00,72.0,67.0,29.79,NE,52,1.0,3.0,84,0.00,,,0.00,,2013-04-13 06:24:00,
2013-04-13 02:48:00,72.0,67.0,29.80,SE,129,0.0,0.0,84,0.00,,,0.00,,2013-04-13 06:48:00,
2013-04-13 02:56:00,71.0,66.0,29.79,NE,38,0.0,0.0,84,0.00,,,0.00,,2013-04-13 06:56:00,
2013-04-13 03:05:00,71.0,66.0,29.78,NNW,343,0.0,2.0,84,0.00,,,0.00,,2013-04-13 07:05:00,
2013-04-13 03:15:00,71.0,66.0,29.78,NNW,343,0.0,2.0,84,0.00,,,0.00,,2013-04-13 07:15:00,
2013-04-13 03:24:00,71.0,66.0,29.79,North,355,0.0,0.0,85,0.00,,,0.00,,2013-04-13 07:24:00,
2013-04-13 03:35:00,71.0,66.0,29.79,NNW,341,0.0,1.0,85,0.00,,,0.00,,2013-04-13 07:35:00,
2013-04-13 03:45:00,71.0,66.0,29.79,NNW,341,0.0,1.0,85,0.00,,,0.00,,2013-04-13 07:45:00,
2013-04-13 03:57:00,71.0,66.0,29.80,West,280,0.0,2.0,85,0.00,,,0.00,,2013-04-13 07:57:00,
2013-04-13 04:06:00,71.0,67.0,29.80,NW,306,0.0,0.0,86,0.00,,,0.00,,2013-04-13 08:06:00,
2013-04-13 04:16:00,71.0,67.0,29.80,NW,306,0.0,0.0,86,0.00,,,0.00,,2013-04-13 08:16:00,
2013-04-13 04:25:00,70.0,66.0,29.80,NW,306,0.0,0.0,86,0.00,,,0.00,,2013-04-13 08:25:00,
2013-04-13 04:35:00,70.0,66.0,29.80,NW,306,0.0,0.0,86,0.00,,,0.00,,2013-04-13 08:35:00,
2013-04-13 04:45:00,70.0,66.0,29.80,NW,306,0.0,0.0,86,0.00,,,0.00,,2013-04-13 08:45:00,
2013-04-13 04:55:00,70.0,66.0,29.80,SSE,164,0.0,0.0,87,0.00,,,0.00,,2013-04-13 08:55:00,
2013-04-13 05:05:00,70.0,66.0,29.79,SSE,164,0.0,0.0,87,0.00,,,0.00,,2013-04-13 09:05:00,
2013-04-13 05:15:00,70.0,66.0,29.79,SSE,164,0.0,0.0,87,0.00,,,0.00,,2013-04-13 09:15:00,
2013-04-13 05:25:00,70.0,66.0,29.79,SSE,164,0.0,0.0,87,0.00,,,0.00,,2013-04-13 09:25:00,
2013-04-13 05:37:00,70.0,66.0,29.79,SSE,164,0.0,0.0,87,0.00,,,0.00,,2013-04-13 09:37:00,
2013-04-13 05:51:00,70.0,66.0,29.79,SSE,164,0.0,0.0,87,0.00,,,0.00,,2013-04-13 09:51:00,
2013-04-13 06:05:00,69.0,65.0,29.79,West,277,0.0,0.0,88,0.00,,,0.00,,2013-04-13 10:05:00,
2013-04-13 06:15:00,69.0,65.0,29.79,West,277,0.0,0.0,88,0.00,,,0.00,,2013-04-13 10:15:00,
2013-04-13 06:25:00,69.0,65.0,29.79,West,277,0.0,0.0,88,0.00,,,0.00,,2013-04-13 10:25:00,
2013-04-13 06:37:00,69.0,65.0,29.80,West,277,0.0,0.0,88,0.00,,,0.00,,2013-04-13 10:37:00,
2013-04-13 06:47:00,69.0,65.0,29.80,West,277,0.0,0.0,88,0.00,,,0.00,,2013-04-13 10:47:00,
2013-04-13 06:55:00,69.0,65.0,29.80,West,277,0.0,0.0,88,0.00,,,0.00,,2013-04-13 10:55:00,
2013-04-13 07:06:00,69.0,66.0,29.81,West,269,0.0,0.0,89,0.00,,,0.00,,2013-04-13 11:06:00,
2013-04-13 07:14:00,69.0,66.0,29.81,West,269,0.0,0.0,89,0.00,,,0.00,,2013-04-13 11:14:00,
2013-04-13 07:24:00,68.0,65.0,29.82,West,269,0.0,0.0,89,0.00,,,0.00,,2013-04-13 11:24:00,
2013-04-13 07:34:00,68.0,65.0,29.82,West,269,0.0,0.0,89,0.00,,,0.00,,2013-04-13 11:34:00,
2013-04-13 07:45:00,68.0,65.0,29.82,West,269,0.0,0.0,89,0.00,,,0.00,,2013-04-13 11:45:00,
2013-04-13 07:54:00,68.0,65.0,29.83,West,269,0.0,0.0,89,0.00,,,0.00,,2013-04-13 11:54:00,
2013-04-13 08:08:00,68.0,65.0,29.84,West,269,0.0,0.0,89,0.00,,,0.00,,2013-04-13 12:08:00,
2013-04-13 08:15:00,68.0,65.0,29.84,West,269,0.0,0.0,89,0.00,,,0.00,,2013-04-13 12:15:00,
2013-04-13 08:25:00,68.0,65.0,29.84,West,269,0.0,0.0,89,0.00,,,0.00,,2013-04-13 12:25:00,
2013-04-13 08:36:00,69.0,66.0,29.85,West,268,0.0,0.0,90,0.00,,,0.00,,2013-04-13 12:36:00,
2013-04-13 08:47:00,69.0,66.0,29.85,West,268,0.0,0.0,90,0.00,,,0.00,,2013-04-13 12:47:00,
2013-04-13 08:56:00,70.0,67.0,29.85,SSW,196,0.0,0.0,91,0.00,,,0.00,,2013-04-13 12:56:00,
2013-04-13 09:07:00,71.0,68.0,29.85,SSE,150,0.0,0.0,91,0.00,,,0.00,,2013-04-13 13:07:00,
2013-04-13 09:30:00,71.0,68.0,29.85,SSE,150,0.0,0.0,91,0.00,,,0.00,,2013-04-13 13:30:00,
2013-04-13 09:48:00,72.0,69.0,29.85,SSE,150,0.0,0.0,91,0.00,,,0.00,,2013-04-13 13:48:00,
2013-04-13 09:57:00,73.0,70.0,29.85,SW,224,0.0,0.0,90,0.00,,,0.00,,2013-04-13 13:57:00,
2013-04-13 10:05:00,75.0,69.0,29.86,WNW,290,0.0,0.0,83,0.00,,,0.00,,2013-04-13 14:05:00,
2013-04-13 10:15:00,75.0,69.0,29.86,WNW,290,0.0,0.0,83,0.00,,,0.00,,2013-04-13 14:15:00,
2013-04-13 10:24:00,77.0,68.0,29.86,WNW,295,2.0,4.0,74,0.00,,,0.00,,2013-04-13 14:24:00,
2013-04-13 10:39:00,79.0,68.0,29.86,WNW,300,2.0,6.0,70,0.00,,,0.00,,2013-04-13 14:39:00,
2013-04-13 10:47:00,79.0,68.0,29.86,WNW,300,2.0,6.0,70,0.00,,,0.00,,2013-04-13 14:47:00,
2013-04-13 11:00:00,79.0,68.0,29.87,NNW,332,0.0,2.0,70,0.00,,,0.00,,2013-04-13 15:00:00,
2013-04-13 11:05:00,79.0,68.0,29.87,NW,311,1.0,3.0,68,0.00,,,0.00,,2013-04-13 15:05:00,
2013-04-13 11:14:00,79.0,68.0,29.87,NW,311,1.0,3.0,68,0.00,,,0.00,,2013-04-13 15:14:00,
2013-04-13 11:29:00,80.0,68.0,29.87,NW,306,0.0,0.0,67,0.00,,,0.00,,2013-04-13 15:29:00,
2013-04-13 11:36:00,81.0,68.0,29.87,North,9,0.0,0.0,64,0.00,,,0.00,,2013-04-13 15:36:00,
2013-04-13 11:44:00,81.0,68.0,29.87,North,9,0.0,0.0,64,0.00,,,0.00,,2013-04-13 15:44:00,
2013-04-13 11:58:00,81.0,69.0,29.87,NNE,26,0.0,0.0,66,0.00,,,0.00,,2013-04-13 15:58:00,
2013-04-13 12:07:00,82.0,69.0,29.87,WNW,284,0.0,2.0,66,0.00,,,0.00,,2013-04-13 16:07:00,
2013-04-13 12:15:00,82.0,69.0,29.87,WNW,284,0.0,2.0,66,0.00,,,0.00,,2013-04-13 16:15:00,
2013-04-13 12:25:00,82.0,70.0,29.88,North,5,1.0,3.0,67,0.00,,,0.00,,2013-04-13 16:25:00,
2013-04-13 12:36:00,82.0,69.0,29.88,West,270,0.0,0.0,66,0.00,,,0.00,,2013-04-13 16:36:00,
2013-04-13 12:46:00,82.0,69.0,29.88,West,270,0.0,0.0,66,0.00,,,0.00,,2013-04-13 16:46:00,
2013-04-13 12:57:00,83.0,71.0,29.88,NNW,332,0.0,2.0,68,0.00,,,0.00,,2013-04-13 16:57:00,
2013-04-13 13:08:00,82.0,69.0,29.87,WNW,289,2.0,5.0,65,0.00,,,0.00,,2013-04-13 17:08:00,
2013-04-13 13:25:00,85.0,70.0,29.87,NW,325,2.0,5.0,60,0.00,,,0.00,,2013-04-13 17:25:00,
2013-04-13 13:38:00,85.0,69.0,29.86,NNW,328,0.0,1.0,58,0.00,,,0.00,,2013-04-13 17:38:00,
2013-04-13 13:44:00,85.0,69.0,29.86,NNW,328,0.0,1.0,58,0.00,,,0.00,,2013-04-13 17:44:00,
2013-04-13 14:04:00,85.0,69.0,29.85,NNE,13,0.0,0.0,58,0.00,,,0.00,,2013-04-13 18:04:00,
2013-04-13 14:15:00,86.0,66.0,29.84,SSW,193,0.0,0.0,51,0.00,,,0.00,,2013-04-13 18:15:00,
2013-04-13 14:25:00,87.0,68.0,29.84,NW,306,0.0,1.0,54,0.00,,,0.00,,2013-04-13 18:25:00,
2013-04-13 14:33:00,87.0,65.0,29.83,NE,41,0.0,0.0,49,0.00,,,0.00,,2013-04-13 18:33:00,
2013-04-13 14:42:00,87.0,65.0,29.83,NE,41,0.0,0.0,49,0.00,,,0.00,,2013-04-13 18:42:00,
2013-04-13 14:53:00,87.0,67.0,29.83,NW,311,0.0,0.0,51,0.00,,,0.00,,2013-04-13 18:53:00,
2013-04-13 15:03:00,87.0,65.0,29.83,WNW,286,1.0,4.0,49,0.00,,,0.00,,2013-04-13 19:03:00,
2013-04-13 15:12:00,87.0,65.0,29.83,WNW,286,1.0,4.0,49,0.00,,,0.00,,2013-04-13 19:12:00,
2013-04-13 15:22:00,88.0,66.0,29.82,NW,305,0.0,0.0,48,0.00,,,0.00,,2013-04-13 19:22:00,
2013-04-13 15:32:00,89.0,66.0,29.81,WNW,284,2.0,4.0,47,0.00,,,0.00,,2013-04-13 19:32:00,
2013-04-13 15:42:00,89.0,66.0,29.81,WNW,284,2.0,4.0,47,0.00,,,0.00,,2013-04-13 19:42:00,
2013-04-13 15:53:00,88.0,66.0,29.81,NW,313,0.0,2.0,48,0.00,,,0.00,,2013-04-13 19:53:00,
2013-04-13 16:02:00,89.0,67.0,29.80,West,279,2.0,5.0,48,0.00,,,0.00,,2013-04-13 20:02:00,
2013-04-13 16:12:00,89.0,67.0,29.80,West,279,2.0,5.0,48,0.00,,,0.00,,2013-04-13 20:12:00,
2013-04-13 16:22:00,88.0,65.0,29.80,WSW,256,0.0,0.0,47,0.00,,,0.00,,2013-04-13 20:22:00,
2013-04-13 16:32:00,89.0,67.0,29.80,NW,315,4.0,8.0,49,0.00,,,0.00,,2013-04-13 20:32:00,
2013-04-13 16:42:00,89.0,67.0,29.80,NW,315,4.0,8.0,49,0.00,,,0.00,,2013-04-13 20:42:00,
2013-04-13 16:52:00,88.0,65.0,29.80,WNW,284,2.0,5.0,47,0.00,,,0.00,,2013-04-13 20:52:00,
2013-04-13 17:02:00,87.0,65.0,29.80,WNW,302,4.0,8.0,49,0.00,,,0.00,,2013-04-13 21:02:00,
2013-04-13 17:12:00,87.0,65.0,29.80,WNW,302,4.0,8.0,49,0.00,,,0.00,,2013-04-13 21:12:00,
2013-04-13 17:22:00,86.0,65.0,29.80,WSW,258,0.0,0.0,50,0.00,,,0.00,,2013-04-13 21:22:00,
2013-04-13 17:33:00,85.0,65.0,29.80,West,280,1.0,4.0,51,0.00,,,0.00,,2013-04-13 21:33:00,
2013-04-13 17:43:00,85.0,65.0,29.80,West,280,1.0,4.0,51,0.00,,,0.00,,2013-04-13 21:43:00,
2013-04-13 17:53:00,85.0,65.0,29.80,WNW,292,0.0,0.0,51,0.00,,,0.00,,2013-04-13 21:53:00,
2013-04-13 18:03:00,85.0,66.0,29.80,West,281,4.0,7.0,54,0.00,,,0.00,,2013-04-13 22:03:00,
2013-04-13 18:13:00,85.0,66.0,29.80,West,281,4.0,7.0,54,0.00,,,0.00,,2013-04-13 22:13:00,
2013-04-13 18:22:00,84.0,68.0,29.80,WNW,292,4.0,6.0,59,0.00,,,0.00,,2013-04-13 22:22:00,
2013-04-13 18:33:00,83.0,68.0,29.81,WNW,299,3.0,8.0,60,0.00,,,0.00,,2013-04-13 22:33:00,
2013-04-13 18:42:00,83.0,68.0,29.81,WNW,299,3.0,8.0,60,0.00,,,0.00,,2013-04-13 22:42:00,
2013-04-13 18:53:00,82.0,68.0,29.81,West,264,5.0,9.0,63,0.00,,,0.00,,2013-04-13 22:53:00,
2013-04-13 19:02:00,81.0,67.0,29.82,WNW,293,5.0,7.0,63,0.00,,,0.00,,2013-04-13 23:02:00,
2013-04-13 19:12:00,81.0,67.0,29.82,WNW,293,5.0,7.0,63,0.00,,,0.00,,2013-04-13 23:12:00,
2013-04-13 19:22:00,80.0,67.0,29.81,West,278,4.0,8.0,65,0.00,,,0.00,,2013-04-13 23:22:00,
2013-04-13 19:33:00,79.0,67.0,29.81,West,269,2.0,7.0,67,0.00,,,0.00,,2013-04-13 23:33:00,
2013-04-13 19:42:00,79.0,67.0,29.81,West,269,2.0,7.0,67,0.00,,,0.00,,2013-04-13 23:42:00,
2013-04-13 19:53:00,78.0,67.0,29.81,WNW,291,2.0,5.0,69,0.00,,,0.00,,2013-04-13 23:53:00,
2013-04-13 20:03:00,77.0,66.0,29.80,WNW,285,0.0,0.0,70,0.00,,,0.00,,2013-04-14 00:03:00,
2013-04-13 20:12:00,77.0,66.0,29.80,WNW,285,0.0,0.0,70,0.00,,,0.00,,2013-04-14 00:12:00,
2013-04-13 20:22:00,76.0,66.0,29.80,West,275,0.0,1.0,71,0.00,,,0.00,,2013-04-14 00:22:00,
2013-04-13 20:32:00,75.0,65.0,29.80,WNW,290,0.0,0.0,72,0.00,,,0.00,,2013-04-14 00:32:00,
2013-04-13 20:42:00,75.0,65.0,29.80,WNW,290,0.0,0.0,72,0.00,,,0.00,,2013-04-14 00:42:00,
2013-04-13 20:52:00,75.0,66.0,29.80,WNW,290,0.0,0.0,73,0.00,,,0.00,,2013-04-14 00:52:00,
2013-04-13 21:02:00,74.0,65.0,29.81,NW,309,0.0,0.0,74,0.00,,,0.00,,2013-04-14 01:02:00,
2013-04-13 21:12:00,74.0,65.0,29.81,NW,309,0.0,0.0,74,0.00,,,0.00,,2013-04-14 01:12:00,
2013-04-13 21:22:00,74.0,66.0,29.81,NW,311,0.0,0.0,76,0.00,,,0.00,,2013-04-14 01:22:00,
2013-04-13 21:32:00,73.0,65.0,29.82,NW,311,0.0,0.0,77,0.00,,,0.00,,2013-04-14 01:32:00,
2013-04-13 21:42:00,73.0,65.0,29.82,NW,311,0.0,0.0,77,0.00,,,0.00,,2013-04-14 01:42:00,
2013-04-13 21:53:00,73.0,66.0,29.84,NW,311,0.0,0.0,78,0.00,,,0.00,,2013-04-14 01:53:00,
2013-04-13 22:02:00,72.0,65.0,29.84,NW,311,0.0,0.0,79,0.00,,,0.00,,2013-04-14 02:02:00,
2013-04-13 22:12:00,72.0,65.0,29.84,NW,311,0.0,0.0,79,0.00,,,0.00,,2013-04-14 02:12:00,
2013-04-13 22:22:00,72.0,65.0,29.85,North,9,0.0,0.0,80,0.00,,,0.00,,2013-04-14 02:22:00,
2013-04-13 22:32:00,72.0,66.0,29.85,North,349,0.0,1.0,81,0.00,,,0.00,,2013-04-14 02:32:00,
2013-04-13 22:42:00,72.0,66.0,29.85,North,349,0.0,1.0,81,0.00,,,0.00,,2013-04-14 02:42:00,
2013-04-13 22:53:00,72.0,66.0,29.85,NNE,23,0.0,1.0,81,0.00,,,0.00,,2013-04-14 02:53:00,
2013-04-13 23:03:00,71.0,65.0,29.85,NNE,30,0.0,0.0,81,0.00,,,0.00,,2013-04-14 03:03:00,
2013-04-13 23:12:00,71.0,65.0,29.85,NNE,30,0.0,0.0,81,0.00,,,0.00,,2013-04-14 03:12:00,
2013-04-13 23:22:00,71.0,65.0,29.85,NE,38,1.0,2.0,82,0.00,,,0.00,,2013-04-14 03:22:00,
2013-04-13 23:33:00,70.0,64.0,29.85,North,355,1.0,2.0,82,0.00,,,0.00,,2013-04-14 03:33:00,
2013-04-13 23:42:00,70.0,64.0,29.85,North,355,1.0,2.0,82,0.00,,,0.00,,2013-04-14 03:42:00,
2013-04-13 23:53:00,70.0,65.0,29.86,NNE,13,0.0,2.0,83,0.00,,,0.00,,2013-04-14 03:53:00,